sensor_id;sensor_type;location;lat;lon;timestamp;P1;durP1;ratioP1;P2;durP2;ratioP2
41568;SDS011;27283;52.504;13.358;2023-02-11T00:02:14;85.00;;;32.78;;
41568;SDS011;27283;52.504;13.358;2023-02-11T00:04:47;82.60;;;31.83;;
41568;SDS011;27283;52.504;13.358;2023-02-11T00:07:19;88.40;;;31.13;;
41568;SDS011;27283;52.504;13.358;2023-02-11T00:09:51;90.45;;;32.95;;
41568;SDS011;27283;52.504;13.358;2023-02-11T00:12:23;85.13;;;32.42;;
41568;SDS011;27283;52.504;13.358;2023-02-11T00:15:16;84.18;;;32.70;;
41568;SDS011;27283;52.504;13.358;2023-02-11T00:18:04;84.22;;;31.77;;
41568;SDS011;27283;52.504;13.358;2023-02-11T00:20:37;84.63;;;32.22;;
41568;SDS011;27283;52.504;13.358;2023-02-11T00:23:11;84.72;;;31.83;;
41568;SDS011;27283;52.504;13.358;2023-02-11T00:25:44;92.38;;;33.60;;
41568;SDS011;27283;52.504;13.358;2023-02-11T00:28:16;77.97;;;31.33;;
41568;SDS011;27283;52.504;13.358;2023-02-11T00:30:56;85.10;;;31.50;;
41568;SDS011;27283;52.504;13.358;2023-02-11T00:33:31;82.90;;;31.20;;
41568;SDS011;27283;52.504;13.358;2023-02-11T00:36:04;80.38;;;30.35;;
41568;SDS011;27283;52.504;13.358;2023-02-11T00:38:37;82.03;;;29.88;;
41568;SDS011;27283;52.504;13.358;2023-02-11T00:41:10;79.88;;;30.52;;
41568;SDS011;27283;52.504;13.358;2023-02-11T00:43:43;78.93;;;29.75;;
41568;SDS011;27283;52.504;13.358;2023-02-11T00:46:18;82.07;;;29.58;;
41568;SDS011;27283;52.504;13.358;2023-02-11T00:48:51;78.30;;;29.98;;
41568;SDS011;27283;52.504;13.358;2023-02-11T00:51:26;77.32;;;31.42;;
41568;SDS011;27283;52.504;13.358;2023-02-11T00:54:00;80.22;;;31.27;;
41568;SDS011;27283;52.504;13.358;2023-02-11T00:56:32;76.60;;;30.17;;
41568;SDS011;27283;52.504;13.358;2023-02-11T00:59:04;79.43;;;30.25;;
41568;SDS011;27283;52.504;13.358;2023-02-11T01:01:40;81.65;;;29.98;;
41568;SDS011;27283;52.504;13.358;2023-02-11T01:04:12;72.65;;;29.55;;
41568;SDS011;27283;52.504;13.358;2023-02-11T01:06:44;81.70;;;28.38;;
41568;SDS011;27283;52.504;13.358;2023-02-11T01:09:16;79.70;;;30.85;;
41568;SDS011;27283;52.504;13.358;2023-02-11T01:11:50;81.97;;;31.05;;
41568;SDS011;27283;52.504;13.358;2023-02-11T01:14:23;79.82;;;30.63;;
41568;SDS011;27283;52.504;13.358;2023-02-11T01:16:59;77.75;;;29.00;;
41568;SDS011;27283;52.504;13.358;2023-02-11T01:19:32;78.90;;;30.42;;
41568;SDS011;27283;52.504;13.358;2023-02-11T01:22:04;77.05;;;29.98;;
41568;SDS011;27283;52.504;13.358;2023-02-11T01:24:36;85.78;;;30.35;;
41568;SDS011;27283;52.504;13.358;2023-02-11T01:27:09;74.72;;;29.15;;
41568;SDS011;27283;52.504;13.358;2023-02-11T01:29:44;83.28;;;29.33;;
41568;SDS011;27283;52.504;13.358;2023-02-11T01:32:21;77.75;;;28.27;;
41568;SDS011;27283;52.504;13.358;2023-02-11T01:34:53;76.95;;;29.23;;
41568;SDS011;27283;52.504;13.358;2023-02-11T01:37:26;78.28;;;29.30;;
41568;SDS011;27283;52.504;13.358;2023-02-11T01:40:00;74.80;;;29.38;;
41568;SDS011;27283;52.504;13.358;2023-02-11T01:42:33;79.10;;;29.23;;
41568;SDS011;27283;52.504;13.358;2023-02-11T01:48:10;75.40;;;30.38;;
41568;SDS011;27283;52.504;13.358;2023-02-11T01:50:44;76.43;;;29.50;;
41568;SDS011;27283;52.504;13.358;2023-02-11T01:53:40;68.63;;;28.70;;
41568;SDS011;27283;52.504;13.358;2023-02-11T01:56:33;76.43;;;28.80;;
41568;SDS011;27283;52.504;13.358;2023-02-11T01:59:21;81.75;;;30.48;;
41568;SDS011;27283;52.504;13.358;2023-02-11T02:01:59;75.10;;;29.75;;
41568;SDS011;27283;52.504;13.358;2023-02-11T02:04:41;71.55;;;28.85;;
41568;SDS011;27283;52.504;13.358;2023-02-11T02:07:29;67.57;;;28.15;;
41568;SDS011;27283;52.504;13.358;2023-02-11T02:10:07;83.38;;;29.48;;
41568;SDS011;27283;52.504;13.358;2023-02-11T02:12:44;72.70;;;29.67;;
41568;SDS011;27283;52.504;13.358;2023-02-11T02:15:20;72.53;;;29.90;;
41568;SDS011;27283;52.504;13.358;2023-02-11T02:18:01;74.05;;;29.08;;
41568;SDS011;27283;52.504;13.358;2023-02-11T02:23:56;85.45;;;32.15;;
41568;SDS011;27283;52.504;13.358;2023-02-11T02:27:02;83.50;;;32.28;;
41568;SDS011;27283;52.504;13.358;2023-02-11T02:30:04;80.55;;;30.02;;
41568;SDS011;27283;52.504;13.358;2023-02-11T02:32:51;75.20;;;31.10;;
41568;SDS011;27283;52.504;13.358;2023-02-11T02:35:52;79.40;;;31.40;;
41568;SDS011;27283;52.504;13.358;2023-02-11T02:38:33;78.03;;;30.95;;
41568;SDS011;27283;52.504;13.358;2023-02-11T02:41:09;78.22;;;31.90;;
41568;SDS011;27283;52.504;13.358;2023-02-11T02:43:44;84.22;;;32.03;;
41568;SDS011;27283;52.504;13.358;2023-02-11T02:46:18;79.10;;;31.77;;
41568;SDS011;27283;52.504;13.358;2023-02-11T02:48:55;78.80;;;32.33;;
41568;SDS011;27283;52.504;13.358;2023-02-11T02:57:31;84.55;;;34.10;;
41568;SDS011;27283;52.504;13.358;2023-02-11T03:00:22;84.22;;;31.98;;
41568;SDS011;27283;52.504;13.358;2023-02-11T03:03:12;80.93;;;31.77;;
41568;SDS011;27283;52.504;13.358;2023-02-11T03:06:01;79.47;;;31.70;;
41568;SDS011;27283;52.504;13.358;2023-02-11T03:08:46;82.03;;;33.13;;
41568;SDS011;27283;52.504;13.358;2023-02-11T03:11:33;79.40;;;32.83;;
41568;SDS011;27283;52.504;13.358;2023-02-11T03:14:09;85.72;;;34.03;;
41568;SDS011;27283;52.504;13.358;2023-02-11T03:16:49;91.85;;;36.17;;
41568;SDS011;27283;52.504;13.358;2023-02-11T03:19:25;83.75;;;34.58;;
41568;SDS011;27283;52.504;13.358;2023-02-11T03:22:04;84.68;;;34.03;;
41568;SDS011;27283;52.504;13.358;2023-02-11T03:24:40;88.88;;;34.38;;
41568;SDS011;27283;52.504;13.358;2023-02-11T03:27:16;92.97;;;34.92;;
41568;SDS011;27283;52.504;13.358;2023-02-11T03:29:52;86.43;;;34.38;;
41568;SDS011;27283;52.504;13.358;2023-02-11T03:32:30;93.80;;;35.42;;
41568;SDS011;27283;52.504;13.358;2023-02-11T03:35:06;91.32;;;35.10;;
41568;SDS011;27283;52.504;13.358;2023-02-11T03:37:48;88.88;;;35.42;;
41568;SDS011;27283;52.504;13.358;2023-02-11T03:40:24;98.35;;;37.63;;
41568;SDS011;27283;52.504;13.358;2023-02-11T03:43:00;90.78;;;37.35;;
41568;SDS011;27283;52.504;13.358;2023-02-11T03:45:38;87.78;;;33.72;;
41568;SDS011;27283;52.504;13.358;2023-02-11T03:48:13;92.63;;;36.80;;
41568;SDS011;27283;52.504;13.358;2023-02-11T03:50:49;88.25;;;36.00;;
41568;SDS011;27283;52.504;13.358;2023-02-11T03:53:28;90.57;;;35.55;;
41568;SDS011;27283;52.504;13.358;2023-02-11T03:56:00;86.45;;;34.92;;
41568;SDS011;27283;52.504;13.358;2023-02-11T03:58:35;97.38;;;39.00;;
41568;SDS011;27283;52.504;13.358;2023-02-11T04:01:08;92.38;;;36.70;;
41568;SDS011;27283;52.504;13.358;2023-02-11T04:03:40;93.47;;;36.13;;
41568;SDS011;27283;52.504;13.358;2023-02-11T04:06:11;98.70;;;35.85;;
41568;SDS011;27283;52.504;13.358;2023-02-11T04:11:35;95.15;;;36.08;;
41568;SDS011;27283;52.504;13.358;2023-02-11T04:14:12;91.75;;;36.75;;
41568;SDS011;27283;52.504;13.358;2023-02-11T04:16:44;92.03;;;34.00;;
41568;SDS011;27283;52.504;13.358;2023-02-11T04:19:16;89.72;;;36.15;;
41568;SDS011;27283;52.504;13.358;2023-02-11T04:21:47;97.93;;;36.15;;
41568;SDS011;27283;52.504;13.358;2023-02-11T04:24:22;94.10;;;37.65;;
41568;SDS011;27283;52.504;13.358;2023-02-11T04:26:55;105.15;;;37.90;;
41568;SDS011;27283;52.504;13.358;2023-02-11T04:29:30;100.30;;;39.00;;
41568;SDS011;27283;52.504;13.358;2023-02-11T04:32:02;96.78;;;38.38;;
41568;SDS011;27283;52.504;13.358;2023-02-11T04:34:33;97.40;;;37.60;;
41568;SDS011;27283;52.504;13.358;2023-02-11T04:37:05;95.55;;;37.90;;
41568;SDS011;27283;52.504;13.358;2023-02-11T04:39:39;96.35;;;38.67;;
41568;SDS011;27283;52.504;13.358;2023-02-11T04:42:11;107.15;;;38.97;;
41568;SDS011;27283;52.504;13.358;2023-02-11T04:44:43;104.60;;;39.08;;
41568;SDS011;27283;52.504;13.358;2023-02-11T04:47:14;99.47;;;37.85;;
41568;SDS011;27283;52.504;13.358;2023-02-11T04:49:46;104.00;;;40.58;;
41568;SDS011;27283;52.504;13.358;2023-02-11T04:52:44;105.50;;;41.22;;
41568;SDS011;27283;52.504;13.358;2023-02-11T04:55:21;108.00;;;41.30;;
41568;SDS011;27283;52.504;13.358;2023-02-11T04:57:52;106.70;;;41.40;;
41568;SDS011;27283;52.504;13.358;2023-02-11T05:00:24;110.95;;;40.67;;
41568;SDS011;27283;52.504;13.358;2023-02-11T05:02:55;110.47;;;39.63;;
41568;SDS011;27283;52.504;13.358;2023-02-11T05:05:27;105.50;;;40.30;;
41568;SDS011;27283;52.504;13.358;2023-02-11T05:07:58;111.18;;;41.10;;
41568;SDS011;27283;52.504;13.358;2023-02-11T05:10:33;106.30;;;42.35;;
41568;SDS011;27283;52.504;13.358;2023-02-11T05:13:05;108.38;;;41.63;;
41568;SDS011;27283;52.504;13.358;2023-02-11T05:15:37;111.38;;;41.35;;
41568;SDS011;27283;52.504;13.358;2023-02-11T05:18:08;111.88;;;41.58;;
41568;SDS011;27283;52.504;13.358;2023-02-11T05:20:42;112.82;;;41.35;;
41568;SDS011;27283;52.504;13.358;2023-02-11T05:23:15;116.22;;;42.75;;
41568;SDS011;27283;52.504;13.358;2023-02-11T05:25:50;112.97;;;44.25;;
41568;SDS011;27283;52.504;13.358;2023-02-11T05:28:21;117.35;;;42.95;;
41568;SDS011;27283;52.504;13.358;2023-02-11T05:30:53;113.78;;;43.05;;
41568;SDS011;27283;52.504;13.358;2023-02-11T05:33:26;111.05;;;41.78;;
41568;SDS011;27283;52.504;13.358;2023-02-11T05:35:58;124.25;;;44.67;;
41568;SDS011;27283;52.504;13.358;2023-02-11T05:38:30;121.25;;;47.50;;
41568;SDS011;27283;52.504;13.358;2023-02-11T05:41:06;124.78;;;44.78;;
41568;SDS011;27283;52.504;13.358;2023-02-11T05:43:40;127.72;;;45.30;;
41568;SDS011;27283;52.504;13.358;2023-02-11T05:46:12;115.38;;;43.38;;
41568;SDS011;27283;52.504;13.358;2023-02-11T05:48:43;124.18;;;47.03;;
41568;SDS011;27283;52.504;13.358;2023-02-11T05:51:15;118.93;;;44.70;;
41568;SDS011;27283;52.504;13.358;2023-02-11T05:53:49;132.32;;;46.50;;
41568;SDS011;27283;52.504;13.358;2023-02-11T05:56:23;132.75;;;48.35;;
41568;SDS011;27283;52.504;13.358;2023-02-11T05:58:57;124.20;;;45.13;;
41568;SDS011;27283;52.504;13.358;2023-02-11T06:01:30;118.00;;;44.80;;
41568;SDS011;27283;52.504;13.358;2023-02-11T06:04:01;123.10;;;45.63;;
41568;SDS011;27283;52.504;13.358;2023-02-11T06:06:33;125.75;;;47.05;;
41568;SDS011;27283;52.504;13.358;2023-02-11T06:09:04;135.98;;;48.13;;
41568;SDS011;27283;52.504;13.358;2023-02-11T06:11:39;125.97;;;48.13;;
41568;SDS011;27283;52.504;13.358;2023-02-11T06:14:11;133.02;;;48.90;;
41568;SDS011;27283;52.504;13.358;2023-02-11T06:16:44;139.75;;;46.50;;
41568;SDS011;27283;52.504;13.358;2023-02-11T06:19:15;138.85;;;50.88;;
41568;SDS011;27283;52.504;13.358;2023-02-11T06:21:47;140.75;;;52.28;;
41568;SDS011;27283;52.504;13.358;2023-02-11T06:24:19;146.80;;;51.50;;
41568;SDS011;27283;52.504;13.358;2023-02-11T06:27:14;139.60;;;50.55;;
41568;SDS011;27283;52.504;13.358;2023-02-11T06:29:46;137.40;;;48.15;;
41568;SDS011;27283;52.504;13.358;2023-02-11T06:32:19;144.05;;;51.63;;
41568;SDS011;27283;52.504;13.358;2023-02-11T06:35:10;140.82;;;50.58;;
41568;SDS011;27283;52.504;13.358;2023-02-11T06:37:43;144.00;;;49.78;;
41568;SDS011;27283;52.504;13.358;2023-02-11T06:40:17;146.45;;;50.42;;
41568;SDS011;27283;52.504;13.358;2023-02-11T06:42:52;144.52;;;50.00;;
41568;SDS011;27283;52.504;13.358;2023-02-11T06:45:24;159.95;;;51.28;;
41568;SDS011;27283;52.504;13.358;2023-02-11T06:47:57;153.82;;;53.97;;
41568;SDS011;27283;52.504;13.358;2023-02-11T06:50:29;147.27;;;51.30;;
41568;SDS011;27283;52.504;13.358;2023-02-11T06:53:02;143.13;;;51.17;;
41568;SDS011;27283;52.504;13.358;2023-02-11T06:55:34;144.13;;;48.30;;
41568;SDS011;27283;52.504;13.358;2023-02-11T06:58:09;152.65;;;52.83;;
41568;SDS011;27283;52.504;13.358;2023-02-11T07:00:41;151.77;;;52.58;;
41568;SDS011;27283;52.504;13.358;2023-02-11T07:03:14;151.73;;;52.03;;
41568;SDS011;27283;52.504;13.358;2023-02-11T07:05:46;140.82;;;48.00;;
41568;SDS011;27283;52.504;13.358;2023-02-11T07:08:19;144.70;;;48.25;;
41568;SDS011;27283;52.504;13.358;2023-02-11T07:10:52;148.52;;;52.35;;
41568;SDS011;27283;52.504;13.358;2023-02-11T07:13:27;156.65;;;53.55;;
41568;SDS011;27283;52.504;13.358;2023-02-11T07:16:02;147.75;;;51.13;;
41568;SDS011;27283;52.504;13.358;2023-02-11T07:18:36;151.93;;;50.30;;
41568;SDS011;27283;52.504;13.358;2023-02-11T07:21:08;154.27;;;52.65;;
41568;SDS011;27283;52.504;13.358;2023-02-11T07:23:44;160.43;;;52.95;;
41568;SDS011;27283;52.504;13.358;2023-02-11T07:26:18;154.52;;;53.63;;
41568;SDS011;27283;52.504;13.358;2023-02-11T07:28:54;141.30;;;50.30;;
41568;SDS011;27283;52.504;13.358;2023-02-11T07:31:27;149.80;;;55.33;;
41568;SDS011;27283;52.504;13.358;2023-02-11T07:34:01;147.95;;;54.13;;
41568;SDS011;27283;52.504;13.358;2023-02-11T07:36:33;156.45;;;53.17;;
41568;SDS011;27283;52.504;13.358;2023-02-11T07:39:06;148.60;;;50.42;;
41568;SDS011;27283;52.504;13.358;2023-02-11T07:41:38;140.15;;;49.08;;
41568;SDS011;27283;52.504;13.358;2023-02-11T07:44:13;146.27;;;48.85;;
41568;SDS011;27283;52.504;13.358;2023-02-11T07:46:46;148.55;;;54.00;;
41568;SDS011;27283;52.504;13.358;2023-02-11T07:49:18;143.63;;;50.30;;
41568;SDS011;27283;52.504;13.358;2023-02-11T07:51:51;133.45;;;46.55;;
41568;SDS011;27283;52.504;13.358;2023-02-11T07:54:23;126.03;;;45.65;;
41568;SDS011;27283;52.504;13.358;2023-02-11T12:12:59;97.72;;;37.42;;
41568;SDS011;27283;52.504;13.358;2023-02-11T12:16:32;94.22;;;34.92;;
41568;SDS011;27283;52.504;13.358;2023-02-11T12:19:18;91.55;;;32.63;;
41568;SDS011;27283;52.504;13.358;2023-02-11T12:22:01;90.50;;;33.67;;
41568;SDS011;27283;52.504;13.358;2023-02-11T12:24:44;88.82;;;35.13;;
41568;SDS011;27283;52.504;13.358;2023-02-11T12:27:32;83.90;;;31.50;;
41568;SDS011;27283;52.504;13.358;2023-02-11T12:30:31;82.25;;;34.45;;
41568;SDS011;27283;52.504;13.358;2023-02-11T12:33:16;81.78;;;34.55;;
41568;SDS011;27283;52.504;13.358;2023-02-11T12:36:00;88.15;;;32.03;;
41568;SDS011;27283;52.504;13.358;2023-02-11T12:38:44;86.50;;;33.15;;
41568;SDS011;27283;52.504;13.358;2023-02-11T12:41:39;81.72;;;32.28;;
41568;SDS011;27283;52.504;13.358;2023-02-11T12:44:36;79.70;;;33.65;;
41568;SDS011;27283;52.504;13.358;2023-02-11T12:47:29;84.32;;;32.00;;
41568;SDS011;27283;52.504;13.358;2023-02-11T12:50:10;83.57;;;33.00;;
41568;SDS011;27283;52.504;13.358;2023-02-11T12:52:51;78.40;;;29.17;;
41568;SDS011;27283;52.504;13.358;2023-02-11T12:55:38;78.85;;;30.02;;
41568;SDS011;27283;52.504;13.358;2023-02-11T12:58:17;72.63;;;29.83;;
41568;SDS011;27283;52.504;13.358;2023-02-11T13:01:11;71.15;;;28.17;;
41568;SDS011;27283;52.504;13.358;2023-02-11T13:03:53;73.20;;;30.27;;
41568;SDS011;27283;52.504;13.358;2023-02-11T13:06:34;72.35;;;29.27;;
41568;SDS011;27283;52.504;13.358;2023-02-11T13:09:10;77.53;;;30.33;;
41568;SDS011;27283;52.504;13.358;2023-02-11T13:11:48;73.45;;;29.27;;
41568;SDS011;27283;52.504;13.358;2023-02-11T13:14:23;72.95;;;31.25;;
41568;SDS011;27283;52.504;13.358;2023-02-11T13:16:59;76.28;;;30.65;;
41568;SDS011;27283;52.504;13.358;2023-02-11T13:19:40;87.13;;;32.38;;
41568;SDS011;27283;52.504;13.358;2023-02-11T13:22:22;91.90;;;32.47;;
41568;SDS011;27283;52.504;13.358;2023-02-11T13:25:02;75.60;;;30.67;;
41568;SDS011;27283;52.504;13.358;2023-02-11T13:27:51;72.70;;;29.65;;
41568;SDS011;27283;52.504;13.358;2023-02-11T13:30:29;64.88;;;27.17;;
41568;SDS011;27283;52.504;13.358;2023-02-11T13:33:17;69.45;;;29.42;;
41568;SDS011;27283;52.504;13.358;2023-02-11T13:39:04;58.33;;;26.67;;
41568;SDS011;27283;52.504;13.358;2023-02-11T13:41:38;62.60;;;26.38;;
41568;SDS011;27283;52.504;13.358;2023-02-11T13:47:06;65.40;;;27.45;;
41568;SDS011;27283;52.504;13.358;2023-02-11T13:49:52;70.63;;;27.95;;
41568;SDS011;27283;52.504;13.358;2023-02-11T13:55:21;65.15;;;29.08;;
41568;SDS011;27283;52.504;13.358;2023-02-11T14:01:07;66.03;;;27.50;;
41568;SDS011;27283;52.504;13.358;2023-02-11T14:03:39;64.38;;;26.80;;
41568;SDS011;27283;52.504;13.358;2023-02-11T14:13:21;65.93;;;31.17;;
41568;SDS011;27283;52.504;13.358;2023-02-11T14:16:03;67.43;;;29.65;;
41568;SDS011;27283;52.504;13.358;2023-02-11T14:18:40;71.68;;;29.17;;
41568;SDS011;27283;52.504;13.358;2023-02-11T14:21:34;79.32;;;31.70;;
41568;SDS011;27283;52.504;13.358;2023-02-11T14:27:17;77.18;;;31.15;;
41568;SDS011;27283;52.504;13.358;2023-02-11T14:30:05;80.22;;;30.10;;
41568;SDS011;27283;52.504;13.358;2023-02-11T14:33:13;78.78;;;29.15;;
41568;SDS011;27283;52.504;13.358;2023-02-11T14:36:13;84.68;;;29.15;;
41568;SDS011;27283;52.504;13.358;2023-02-11T14:38:59;82.30;;;29.75;;
41568;SDS011;27283;52.504;13.358;2023-02-11T14:41:39;79.47;;;31.55;;
41568;SDS011;27283;52.504;13.358;2023-02-11T14:44:15;79.40;;;30.88;;
41568;SDS011;27283;52.504;13.358;2023-02-11T14:46:53;72.18;;;28.88;;
41568;SDS011;27283;52.504;13.358;2023-02-11T14:49:28;69.82;;;28.30;;
41568;SDS011;27283;52.504;13.358;2023-02-11T14:52:05;71.63;;;29.27;;
41568;SDS011;27283;52.504;13.358;2023-02-11T14:54:47;73.82;;;27.23;;
41568;SDS011;27283;52.504;13.358;2023-02-11T14:57:21;73.07;;;27.58;;
41568;SDS011;27283;52.504;13.358;2023-02-11T14:59:56;68.70;;;27.92;;
41568;SDS011;27283;52.504;13.358;2023-02-11T15:02:59;65.78;;;26.00;;
41568;SDS011;27283;52.504;13.358;2023-02-11T15:05:31;64.35;;;26.38;;
41568;SDS011;27283;52.504;13.358;2023-02-11T15:08:06;68.38;;;25.10;;
41568;SDS011;27283;52.504;13.358;2023-02-11T15:10:50;65.28;;;25.10;;
41568;SDS011;27283;52.504;13.358;2023-02-11T15:13:25;64.65;;;25.92;;
41568;SDS011;27283;52.504;13.358;2023-02-11T15:16:05;63.00;;;24.77;;
41568;SDS011;27283;52.504;13.358;2023-02-11T15:18:49;64.65;;;23.83;;
41568;SDS011;27283;52.504;13.358;2023-02-11T15:21:25;60.90;;;25.88;;
41568;SDS011;27283;52.504;13.358;2023-02-11T15:24:01;57.47;;;24.65;;
41568;SDS011;27283;52.504;13.358;2023-02-11T15:26:35;67.72;;;25.70;;
41568;SDS011;27283;52.504;13.358;2023-02-11T15:29:13;61.38;;;23.92;;
41568;SDS011;27283;52.504;13.358;2023-02-11T15:32:01;61.33;;;24.00;;
41568;SDS011;27283;52.504;13.358;2023-02-11T15:34:47;55.88;;;22.23;;
41568;SDS011;27283;52.504;13.358;2023-02-11T15:37:21;58.47;;;23.98;;
41568;SDS011;27283;52.504;13.358;2023-02-11T15:40:07;59.53;;;23.20;;
41568;SDS011;27283;52.504;13.358;2023-02-11T15:42:51;60.72;;;22.70;;
41568;SDS011;27283;52.504;13.358;2023-02-11T15:45:31;57.38;;;21.67;;
41568;SDS011;27283;52.504;13.358;2023-02-11T15:48:06;55.67;;;22.83;;
41568;SDS011;27283;52.504;13.358;2023-02-11T15:50:50;54.83;;;22.23;;
41568;SDS011;27283;52.504;13.358;2023-02-11T15:53:30;58.25;;;23.05;;
41568;SDS011;27283;52.504;13.358;2023-02-11T15:56:11;56.95;;;21.33;;
41568;SDS011;27283;52.504;13.358;2023-02-11T15:58:56;54.50;;;20.80;;
41568;SDS011;27283;52.504;13.358;2023-02-11T16:01:31;57.05;;;23.23;;
41568;SDS011;27283;52.504;13.358;2023-02-11T16:04:12;57.88;;;22.88;;
41568;SDS011;27283;52.504;13.358;2023-02-11T16:06:50;58.55;;;23.55;;
41568;SDS011;27283;52.504;13.358;2023-02-11T16:09:29;47.90;;;20.45;;
41568;SDS011;27283;52.504;13.358;2023-02-11T16:12:22;53.40;;;24.17;;
41568;SDS011;27283;52.504;13.358;2023-02-11T16:14:58;57.13;;;25.52;;
41568;SDS011;27283;52.504;13.358;2023-02-11T16:17:53;52.33;;;25.27;;
41568;SDS011;27283;52.504;13.358;2023-02-11T16:20:25;54.38;;;23.88;;
41568;SDS011;27283;52.504;13.358;2023-02-11T16:22:59;55.15;;;24.48;;
41568;SDS011;27283;52.504;13.358;2023-02-11T16:25:34;54.67;;;24.13;;
41568;SDS011;27283;52.504;13.358;2023-02-11T16:28:11;50.10;;;23.17;;
41568;SDS011;27283;52.504;13.358;2023-02-11T16:30:47;50.15;;;25.00;;
41568;SDS011;27283;52.504;13.358;2023-02-11T16:33:29;45.05;;;21.52;;
41568;SDS011;27283;52.504;13.358;2023-02-11T16:36:16;50.33;;;23.42;;
41568;SDS011;27283;52.504;13.358;2023-02-11T16:40:17;44.17;;;19.42;;
41568;SDS011;27283;52.504;13.358;2023-02-11T16:42:51;45.50;;;21.05;;
41568;SDS011;27283;52.504;13.358;2023-02-11T16:45:42;44.90;;;19.73;;
41568;SDS011;27283;52.504;13.358;2023-02-11T16:48:23;40.38;;;19.95;;
41568;SDS011;27283;52.504;13.358;2023-02-11T16:51:17;43.95;;;19.33;;
41568;SDS011;27283;52.504;13.358;2023-02-11T16:59:37;47.55;;;21.05;;
41568;SDS011;27283;52.504;13.358;2023-02-11T17:02:15;47.28;;;22.77;;
41568;SDS011;27283;52.504;13.358;2023-02-11T17:05:15;53.03;;;24.33;;
41568;SDS011;27283;52.504;13.358;2023-02-11T17:07:53;55.08;;;25.83;;
41568;SDS011;27283;52.504;13.358;2023-02-11T17:10:27;48.38;;;24.08;;
41568;SDS011;27283;52.504;13.358;2023-02-11T17:13:03;50.50;;;24.75;;
41568;SDS011;27283;52.504;13.358;2023-02-11T17:15:35;48.92;;;23.55;;
41568;SDS011;27283;52.504;13.358;2023-02-11T17:18:07;49.40;;;22.83;;
41568;SDS011;27283;52.504;13.358;2023-02-11T17:20:42;52.42;;;22.15;;
41568;SDS011;27283;52.504;13.358;2023-02-11T17:23:14;53.13;;;24.45;;
41568;SDS011;27283;52.504;13.358;2023-02-11T17:25:55;45.60;;;22.15;;
41568;SDS011;27283;52.504;13.358;2023-02-11T17:28:57;42.63;;;21.50;;
41568;SDS011;27283;52.504;13.358;2023-02-11T17:31:29;40.10;;;19.38;;
41568;SDS011;27283;52.504;13.358;2023-02-11T17:34:02;40.90;;;17.88;;
41568;SDS011;27283;52.504;13.358;2023-02-11T17:36:35;39.28;;;20.42;;
41568;SDS011;27283;52.504;13.358;2023-02-11T17:39:10;40.25;;;18.35;;
41568;SDS011;27283;52.504;13.358;2023-02-11T17:41:42;37.72;;;19.17;;
41568;SDS011;27283;52.504;13.358;2023-02-11T17:44:18;37.17;;;18.60;;
41568;SDS011;27283;52.504;13.358;2023-02-11T17:46:50;38.10;;;17.17;;
41568;SDS011;27283;52.504;13.358;2023-02-11T17:49:23;37.03;;;17.65;;
41568;SDS011;27283;52.504;13.358;2023-02-11T17:51:56;39.80;;;17.17;;
41568;SDS011;27283;52.504;13.358;2023-02-11T17:54:28;38.67;;;18.38;;
41568;SDS011;27283;52.504;13.358;2023-02-11T17:57:01;41.85;;;19.88;;
41568;SDS011;27283;52.504;13.358;2023-02-11T17:59:36;39.25;;;18.75;;
41568;SDS011;27283;52.504;13.358;2023-02-11T18:02:09;36.45;;;17.90;;
41568;SDS011;27283;52.504;13.358;2023-02-11T18:04:42;35.70;;;15.73;;
41568;SDS011;27283;52.504;13.358;2023-02-11T18:07:15;32.83;;;16.08;;
41568;SDS011;27283;52.504;13.358;2023-02-11T18:09:47;31.40;;;14.75;;
41568;SDS011;27283;52.504;13.358;2023-02-11T18:12:20;32.65;;;16.10;;
41568;SDS011;27283;52.504;13.358;2023-02-11T18:15:01;33.72;;;16.70;;
41568;SDS011;27283;52.504;13.358;2023-02-11T18:17:34;36.30;;;16.73;;
41568;SDS011;27283;52.504;13.358;2023-02-11T18:20:07;34.17;;;16.17;;
41568;SDS011;27283;52.504;13.358;2023-02-11T18:22:41;38.72;;;17.15;;
41568;SDS011;27283;52.504;13.358;2023-02-11T18:25:13;31.33;;;16.17;;
41568;SDS011;27283;52.504;13.358;2023-02-11T18:27:46;35.97;;;17.27;;
41568;SDS011;27283;52.504;13.358;2023-02-11T18:30:21;33.85;;;16.05;;
41568;SDS011;27283;52.504;13.358;2023-02-11T18:32:54;35.58;;;17.20;;
41568;SDS011;27283;52.504;13.358;2023-02-11T18:35:27;34.92;;;16.08;;
41568;SDS011;27283;52.504;13.358;2023-02-11T18:38:03;36.83;;;17.17;;
41568;SDS011;27283;52.504;13.358;2023-02-11T18:40:37;36.08;;;18.02;;
41568;SDS011;27283;52.504;13.358;2023-02-11T18:43:10;31.45;;;16.65;;
41568;SDS011;27283;52.504;13.358;2023-02-11T18:45:45;31.25;;;16.00;;
41568;SDS011;27283;52.504;13.358;2023-02-11T18:48:19;30.77;;;15.90;;
41568;SDS011;27283;52.504;13.358;2023-02-11T18:50:51;33.97;;;16.35;;
41568;SDS011;27283;52.504;13.358;2023-02-11T18:53:25;29.52;;;15.27;;
41568;SDS011;27283;52.504;13.358;2023-02-11T18:55:57;28.30;;;14.77;;
41568;SDS011;27283;52.504;13.358;2023-02-11T18:58:29;29.45;;;14.45;;
41568;SDS011;27283;52.504;13.358;2023-02-11T19:01:08;31.25;;;15.35;;
41568;SDS011;27283;52.504;13.358;2023-02-11T19:03:42;28.63;;;15.55;;
41568;SDS011;27283;52.504;13.358;2023-02-11T19:06:15;32.72;;;15.77;;
41568;SDS011;27283;52.504;13.358;2023-02-11T19:08:50;27.92;;;13.88;;
41568;SDS011;27283;52.504;13.358;2023-02-11T19:11:26;26.77;;;14.88;;
41568;SDS011;27283;52.504;13.358;2023-02-11T19:14:12;27.35;;;14.38;;
41568;SDS011;27283;52.504;13.358;2023-02-11T19:16:51;28.35;;;14.30;;
41568;SDS011;27283;52.504;13.358;2023-02-11T19:19:25;27.30;;;14.73;;
41568;SDS011;27283;52.504;13.358;2023-02-11T19:21:58;29.80;;;14.15;;
41568;SDS011;27283;52.504;13.358;2023-02-11T19:24:37;28.85;;;14.15;;
41568;SDS011;27283;52.504;13.358;2023-02-11T19:27:13;28.27;;;13.63;;
41568;SDS011;27283;52.504;13.358;2023-02-11T19:30:04;28.77;;;14.23;;
41568;SDS011;27283;52.504;13.358;2023-02-11T19:32:40;28.15;;;15.02;;
41568;SDS011;27283;52.504;13.358;2023-02-11T19:35:12;31.70;;;15.18;;
41568;SDS011;27283;52.504;13.358;2023-02-11T19:37:44;30.65;;;15.63;;
41568;SDS011;27283;52.504;13.358;2023-02-11T19:40:17;33.20;;;16.20;;
41568;SDS011;27283;52.504;13.358;2023-02-11T19:42:49;32.67;;;16.10;;
41568;SDS011;27283;52.504;13.358;2023-02-11T19:45:21;31.23;;;15.57;;
41568;SDS011;27283;52.504;13.358;2023-02-11T19:47:57;31.77;;;15.52;;
41568;SDS011;27283;52.504;13.358;2023-02-11T19:50:29;30.45;;;14.88;;
41568;SDS011;27283;52.504;13.358;2023-02-11T19:53:01;30.35;;;15.60;;
41568;SDS011;27283;52.504;13.358;2023-02-11T19:55:33;31.75;;;16.65;;
41568;SDS011;27283;52.504;13.358;2023-02-11T19:58:05;36.53;;;16.65;;
41568;SDS011;27283;52.504;13.358;2023-02-11T20:00:37;31.33;;;16.30;;
41568;SDS011;27283;52.504;13.358;2023-02-11T20:03:12;35.45;;;16.58;;
41568;SDS011;27283;52.504;13.358;2023-02-11T20:05:45;31.13;;;15.38;;